sensor_id;sensor_type;location;lat;lon;timestamp;pressure;altitude;pressure_sealevel;temperature;humidity
19086;BME280;9675;51.538;6.728;2023-02-13T00:00:55;103382.31;;;9.68;100.00
19086;BME280;9675;51.538;6.728;2023-02-13T00:03:23;103379.75;;;9.68;100.00
19086;BME280;9675;51.538;6.728;2023-02-13T00:05:50;103372.78;;;9.67;100.00
19086;BME280;9675;51.538;6.728;2023-02-13T00:08:17;103376.09;;;9.66;100.00
19086;BME280;9675;51.538;6.728;2023-02-13T00:10:46;103373.38;;;9.65;100.00
19086;BME280;9675;51.538;6.728;2023-02-13T00:13:13;103369.78;;;9.63;100.00
19086;BME280;9675;51.538;6.728;2023-02-13T00:15:40;103366.41;;;9.64;100.00
19086;BME280;9675;51.538;6.728;2023-02-13T00:18:17;103363.56;;;9.61;100.00
19086;BME280;9675;51.538;6.728;2023-02-13T00:20:44;103362.81;;;9.62;100.00
19086;BME280;9675;51.538;6.728;2023-02-13T00:23:11;103367.97;;;9.62;100.00
19086;BME280;9675;51.538;6.728;2023-02-13T00:25:39;103363.56;;;9.61;100.00
19086;BME280;9675;51.538;6.728;2023-02-13T00:28:06;103357.38;;;9.59;100.00
19086;BME280;9675;51.538;6.728;2023-02-13T00:30:34;103366.78;;;9.58;100.00
19086;BME280;9675;51.538;6.728;2023-02-13T00:33:01;103364.97;;;9.57;100.00
19086;BME280;9675;51.538;6.728;2023-02-13T00:35:29;103365.72;;;9.56;100.00
19086;BME280;9675;51.538;6.728;2023-02-13T00:38:00;103361.31;;;9.55;100.00
19086;BME280;9675;51.538;6.728;2023-02-13T00:40:27;103363.91;;;9.55;100.00
19086;BME280;9675;51.538;6.728;2023-02-13T00:42:57;103369.03;;;9.55;100.00
19086;BME280;9675;51.538;6.728;2023-02-13T00:45:24;103368.88;;;9.54;100.00
19086;BME280;9675;51.538;6.728;2023-02-13T00:47:52;103366.19;;;9.52;100.00
19086;BME280;9675;51.538;6.728;2023-02-13T00:50:19;103363.63;;;9.52;100.00
19086;BME280;9675;51.538;6.728;2023-02-13T00:52:48;103361.81;;;9.51;100.00
19086;BME280;9675;51.538;6.728;2023-02-13T00:55:15;103366.03;;;9.51;100.00
19086;BME280;9675;51.538;6.728;2023-02-13T00:57:45;103361.66;;;9.50;100.00
19086;BME280;9675;51.538;6.728;2023-02-13T01:00:14;103362.28;;;9.47;100.00
19086;BME280;9675;51.538;6.728;2023-02-13T01:02:45;103362.41;;;9.49;100.00
19086;BME280;9675;51.538;6.728;2023-02-13T01:05:13;103364.97;;;9.49;100.00
19086;BME280;9675;51.538;6.728;2023-02-13T01:07:40;103366.53;;;9.47;100.00
19086;BME280;9675;51.538;6.728;2023-02-13T01:10:10;103364.72;;;9.46;100.00
19086;BME280;9675;51.538;6.728;2023-02-13T01:12:37;103370.75;;;9.46;100.00
19086;BME280;9675;51.538;6.728;2023-02-13T01:15:06;103366.38;;;9.45;100.00
19086;BME280;9675;51.538;6.728;2023-02-13T01:17:33;103363.78;;;9.45;100.00
19086;BME280;9675;51.538;6.728;2023-02-13T01:20:00;103361.97;;;9.44;100.00
19086;BME280;9675;51.538;6.728;2023-02-13T01:22:27;103365.47;;;9.45;100.00
19086;BME280;9675;51.538;6.728;2023-02-13T01:24:54;103358.38;;;9.42;100.00
19086;BME280;9675;51.538;6.728;2023-02-13T01:27:23;103361.56;;;9.39;100.00
19086;BME280;9675;51.538;6.728;2023-02-13T01:29:51;103357.31;;;9.40;100.00
19086;BME280;9675;51.538;6.728;2023-02-13T01:32:18;103358.06;;;9.39;100.00
19086;BME280;9675;51.538;6.728;2023-02-13T01:34:45;103356.41;;;9.39;100.00
19086;BME280;9675;51.538;6.728;2023-02-13T01:37:13;103358.81;;;9.38;100.00
19086;BME280;9675;51.538;6.728;2023-02-13T01:39:40;103356.13;;;9.36;100.00
19086;BME280;9675;51.538;6.728;2023-02-13T01:42:14;103355.97;;;9.35;100.00
19086;BME280;9675;51.538;6.728;2023-02-13T01:44:52;103353.25;;;9.33;100.00
19086;BME280;9675;51.538;6.728;2023-02-13T01:47:25;103354.16;;;9.34;100.00
19086;BME280;9675;51.538;6.728;2023-02-13T01:50:05;103348.00;;;9.32;100.00
19086;BME280;9675;51.538;6.728;2023-02-13T01:52:37;103354.16;;;9.34;100.00
19086;BME280;9675;51.538;6.728;2023-02-13T01:55:08;103356.72;;;9.34;100.00
19086;BME280;9675;51.538;6.728;2023-02-13T01:57:38;103348.91;;;9.32;100.00
19086;BME280;9675;51.538;6.728;2023-02-13T02:00:13;103346.16;;;9.31;100.00
19086;BME280;9675;51.538;6.728;2023-02-13T02:02:47;103345.09;;;9.29;100.00
19086;BME280;9675;51.538;6.728;2023-02-13T02:05:18;103344.94;;;9.27;100.00
19086;BME280;9675;51.538;6.728;2023-02-13T02:07:46;103340.59;;;9.26;100.00
19086;BME280;9675;51.538;6.728;2023-02-13T02:10:17;103338.94;;;9.27;100.00
19086;BME280;9675;51.538;6.728;2023-02-13T02:12:54;103343.16;;;9.26;100.00
19086;BME280;9675;51.538;6.728;2023-02-13T02:15:27;103346.66;;;9.27;100.00
19086;BME280;9675;51.538;6.728;2023-02-13T02:17:54;103332.09;;;9.27;100.00
19086;BME280;9675;51.538;6.728;2023-02-13T02:20:39;103346.66;;;9.27;100.00
19086;BME280;9675;51.538;6.728;2023-02-13T02:23:54;103334.25;;;9.23;100.00
19086;BME280;9675;51.538;6.728;2023-02-13T02:27:15;103341.19;;;9.24;100.00
19086;BME280;9675;51.538;6.728;2023-02-13T02:30:46;103336.53;;;9.20;100.00
19086;BME280;9675;51.538;6.728;2023-02-13T02:33:40;103348.75;;;9.22;100.00
19086;BME280;9675;51.538;6.728;2023-02-13T02:36:27;103344.25;;;9.20;100.00
19086;BME280;9675;51.538;6.728;2023-02-13T02:39:07;103335.47;;;9.18;100.00
19086;BME280;9675;51.538;6.728;2023-02-13T02:41:57;103342.44;;;9.19;100.00
19086;BME280;9675;51.538;6.728;2023-02-13T02:44:35;103333.38;;;9.14;100.00
19086;BME280;9675;51.538;6.728;2023-02-13T02:47:16;103335.19;;;9.15;100.00
19086;BME280;9675;51.538;6.728;2023-02-13T02:50:24;103335.19;;;9.15;100.00
19086;BME280;9675;51.538;6.728;2023-02-13T02:53:07;103334.28;;;9.14;100.00
19086;BME280;9675;51.538;6.728;2023-02-13T02:55:43;103338.50;;;9.14;100.00
19086;BME280;9675;51.538;6.728;2023-02-13T02:58:19;103344.41;;;9.13;100.00
19086;BME280;9675;51.538;6.728;2023-02-13T03:01:11;103338.25;;;9.11;100.00
19086;BME280;9675;51.538;6.728;2023-02-13T03:03:58;103336.41;;;9.10;100.00
19086;BME280;9675;51.538;6.728;2023-02-13T03:06:48;103343.22;;;9.09;100.00
19086;BME280;9675;51.538;6.728;2023-02-13T03:09:23;103340.38;;;9.06;100.00
19086;BME280;9675;51.538;6.728;2023-02-13T03:12:12;103339.47;;;9.06;100.00
19086;BME280;9675;51.538;6.728;2023-02-13T03:15:00;103329.19;;;9.06;100.00
19086;BME280;9675;51.538;6.728;2023-02-13T03:17:28;103334.00;;;9.03;100.00
19086;BME280;9675;51.538;6.728;2023-02-13T03:20:41;103338.25;;;9.02;100.00
19086;BME280;9675;51.538;6.728;2023-02-13T03:23:44;103336.31;;;9.00;100.00
19086;BME280;9675;51.538;6.728;2023-02-13T03:26:35;103340.69;;;9.01;100.00
19086;BME280;9675;51.538;6.728;2023-02-13T03:29:29;103339.78;;;9.00;100.00
19086;BME280;9675;51.538;6.728;2023-02-13T03:32:25;103345.84;;;9.01;100.00
19086;BME280;9675;51.538;6.728;2023-02-13T03:35:07;103343.69;;;8.96;100.00
19086;BME280;9675;51.538;6.728;2023-02-13T03:38:09;103340.84;;;8.93;100.00
19086;BME280;9675;51.538;6.728;2023-02-13T03:40:47;103339.19;;;8.94;100.00
19086;BME280;9675;51.538;6.728;2023-02-13T03:43:44;103334.06;;;8.94;100.00
19086;BME280;9675;51.538;6.728;2023-02-13T03:46:15;103344.34;;;8.94;100.00
19086;BME280;9675;51.538;6.728;2023-02-13T03:48:45;103338.75;;;8.89;100.00
19086;BME280;9675;51.538;6.728;2023-02-13T03:51:36;103350.06;;;8.91;100.00
19086;BME280;9675;51.538;6.728;2023-02-13T03:54:14;103359.16;;;8.88;100.00
19086;BME280;9675;51.538;6.728;2023-02-13T03:56:46;103356.75;;;8.89;100.00
19086;BME280;9675;51.538;6.728;2023-02-13T03:59:35;103350.53;;;8.87;100.00
19086;BME280;9675;51.538;6.728;2023-02-13T04:02:11;103355.38;;;8.84;100.00
19086;BME280;9675;51.538;6.728;2023-02-13T04:04:47;103354.31;;;8.82;100.00
19086;BME280;9675;51.538;6.728;2023-02-13T04:07:18;103347.25;;;8.80;100.00
19086;BME280;9675;51.538;6.728;2023-02-13T04:09:57;103350.72;;;8.80;100.00
19086;BME280;9675;51.538;6.728;2023-02-13T04:12:37;103352.50;;;8.81;100.00
19086;BME280;9675;51.538;6.728;2023-02-13T04:15:15;103340.44;;;8.80;100.00
19086;BME280;9675;51.538;6.728;2023-02-13T04:17:47;103343.75;;;8.79;100.00
19086;BME280;9675;51.538;6.728;2023-02-13T04:20:17;103351.47;;;8.79;100.00
19086;BME280;9675;51.538;6.728;2023-02-13T04:22:46;103343.44;;;8.76;100.00
19086;BME280;9675;51.538;6.728;2023-02-13T04:25:16;103348.59;;;8.76;100.00
19086;BME280;9675;51.538;6.728;2023-02-13T04:27:45;103357.38;;;8.78;100.00
19086;BME280;9675;51.538;6.728;2023-02-13T04:30:13;103353.72;;;8.76;100.00
19086;BME280;9675;51.538;6.728;2023-02-13T04:32:40;103353.72;;;8.76;100.00
19086;BME280;9675;51.538;6.728;2023-02-13T04:35:07;103354.50;;;8.75;100.00
19086;BME280;9675;51.538;6.728;2023-02-13T04:37:36;103357.09;;;8.75;100.00
19086;BME280;9675;51.538;6.728;2023-02-13T04:40:04;103355.25;;;8.74;100.00
19086;BME280;9675;51.538;6.728;2023-02-13T04:42:31;103357.09;;;8.75;100.00
19086;BME280;9675;51.538;6.728;2023-02-13T04:45:00;103353.44;;;8.73;100.00
19086;BME280;9675;51.538;6.728;2023-02-13T04:47:27;103349.81;;;8.71;100.00
19086;BME280;9675;51.538;6.728;2023-02-13T04:49:54;103346.50;;;8.72;100.00
19086;BME280;9675;51.538;6.728;2023-02-13T04:52:21;103346.50;;;8.72;100.00
19086;BME280;9675;51.538;6.728;2023-02-13T04:54:48;103348.03;;;8.70;100.00
19086;BME280;9675;51.538;6.728;2023-02-13T04:57:15;103340.91;;;8.68;100.00
19086;BME280;9675;51.538;6.728;2023-02-13T04:59:42;103341.81;;;8.68;100.00
19086;BME280;9675;51.538;6.728;2023-02-13T05:02:10;103345.13;;;8.67;100.00
19086;BME280;9675;51.538;6.728;2023-02-13T05:04:38;103336.41;;;8.65;100.00
19086;BME280;9675;51.538;6.728;2023-02-13T05:07:05;103344.09;;;8.65;100.00
19086;BME280;9675;51.538;6.728;2023-02-13T05:09:32;103343.94;;;8.64;100.00
19086;BME280;9675;51.538;6.728;2023-02-13T05:11:59;103340.16;;;8.60;100.00
19086;BME280;9675;51.538;6.728;2023-02-13T05:14:26;103338.66;;;8.62;100.00
19086;BME280;9675;51.538;6.728;2023-02-13T05:16:53;103337.75;;;8.62;100.00
19086;BME280;9675;51.538;6.728;2023-02-13T05:19:22;103347.09;;;8.61;100.00
19086;BME280;9675;51.538;6.728;2023-02-13T05:21:49;103341.06;;;8.61;100.00
19086;BME280;9675;51.538;6.728;2023-02-13T05:24:34;103344.25;;;8.58;100.00
19086;BME280;9675;51.538;6.728;2023-02-13T05:27:01;103335.63;;;8.58;100.00
19086;BME280;9675;51.538;6.728;2023-02-13T05:29:31;103337.28;;;8.57;100.00
19086;BME280;9675;51.538;6.728;2023-02-13T05:31:58;103333.81;;;8.57;100.00
19086;BME280;9675;51.538;6.728;2023-02-13T05:34:28;103332.63;;;8.53;100.00
19086;BME280;9675;51.538;6.728;2023-02-13T05:36:55;103335.94;;;8.52;100.00
19086;BME280;9675;51.538;6.728;2023-02-13T05:39:22;103329.91;;;8.51;100.00
19086;BME280;9675;51.538;6.728;2023-02-13T05:41:49;103317.69;;;8.49;100.00
19086;BME280;9675;51.538;6.728;2023-02-13T05:44:16;103322.81;;;8.49;100.00
19086;BME280;9675;51.538;6.728;2023-02-13T05:46:44;103319.34;;;8.48;100.00
19086;BME280;9675;51.538;6.728;2023-02-13T05:49:13;103314.81;;;8.46;100.00
19086;BME280;9675;51.538;6.728;2023-02-13T05:51:42;103323.41;;;8.46;100.00
19086;BME280;9675;51.538;6.728;2023-02-13T05:54:11;103322.38;;;8.44;100.00
19086;BME280;9675;51.538;6.728;2023-02-13T05:56:38;103320.41;;;8.42;100.00
19086;BME280;9675;51.538;6.728;2023-02-13T05:59:06;103324.78;;;8.43;100.00
19086;BME280;9675;51.538;6.728;2023-02-13T06:01:33;103331.56;;;8.42;100.00
19086;BME280;9675;51.538;6.728;2023-02-13T06:04:00;103323.72;;;8.41;100.00
19086;BME280;9675;51.538;6.728;2023-02-13T06:06:27;103321.00;;;8.39;100.00
19086;BME280;9675;51.538;6.728;2023-02-13T06:08:55;103327.81;;;8.39;100.00
19086;BME280;9675;51.538;6.728;2023-02-13T06:11:22;103328.41;;;8.36;100.00
19086;BME280;9675;51.538;6.728;2023-02-13T06:13:50;103326.59;;;8.35;100.00
19086;BME280;9675;51.538;6.728;2023-02-13T06:16:17;103325.69;;;8.35;100.00
19086;BME280;9675;51.538;6.728;2023-02-13T06:18:44;103329.03;;;8.34;100.00
19086;BME280;9675;51.538;6.728;2023-02-13T06:21:11;103320.25;;;8.32;100.00
19086;BME280;9675;51.538;6.728;2023-02-13T06:23:38;103314.97;;;8.30;100.00
19086;BME280;9675;51.538;6.728;2023-02-13T06:26:08;103326.88;;;8.30;100.00
19086;BME280;9675;51.538;6.728;2023-02-13T06:28:35;103325.81;;;8.28;100.00
19086;BME280;9675;51.538;6.728;2023-02-13T06:31:02;103319.63;;;8.26;100.00
19086;BME280;9675;51.538;6.728;2023-02-13T06:33:30;103319.63;;;8.26;100.00
19086;BME280;9675;51.538;6.728;2023-02-13T06:35:58;103320.25;;;8.23;100.00
19086;BME280;9675;51.538;6.728;2023-02-13T06:38:25;103317.50;;;8.22;100.00
19086;BME280;9675;51.538;6.728;2023-02-13T06:40:58;103314.78;;;8.20;100.00
19086;BME280;9675;51.538;6.728;2023-02-13T06:43:27;103322.31;;;8.19;100.00
19086;BME280;9675;51.538;6.728;2023-02-13T06:45:54;103325.66;;;8.18;100.00
19086;BME280;9675;51.538;6.728;2023-02-13T06:48:21;103318.72;;;8.17;100.00
19086;BME280;9675;51.538;6.728;2023-02-13T06:50:48;103324.44;;;8.14;100.00
19086;BME280;9675;51.538;6.728;2023-02-13T06:53:17;103324.31;;;8.13;100.00
19086;BME280;9675;51.538;6.728;2023-02-13T06:55:50;103316.28;;;8.09;100.00
19086;BME280;9675;51.538;6.728;2023-02-13T06:58:18;103322.16;;;8.08;100.00
19086;BME280;9675;51.538;6.728;2023-02-13T07:00:46;103322.94;;;8.07;100.00
19086;BME280;9675;51.538;6.728;2023-02-13T07:03:13;103328.81;;;8.06;100.00
19086;BME280;9675;51.538;6.728;2023-02-13T07:05:41;103325.94;;;8.03;100.00
19086;BME280;9675;51.538;6.728;2023-02-13T07:08:10;103330.03;;;8.01;100.00
19086;BME280;9675;51.538;6.728;2023-02-13T07:10:38;103324.91;;;8.01;100.00
19086;BME280;9675;51.538;6.728;2023-02-13T07:13:06;103328.22;;;8.00;100.00
19086;BME280;9675;51.538;6.728;2023-02-13T07:15:34;103333.06;;;7.97;100.00
19086;BME280;9675;51.538;6.728;2023-02-13T07:18:04;103332.88;;;7.96;100.00
19086;BME280;9675;51.538;6.728;2023-02-13T07:20:32;103344.81;;;7.95;100.00
19086;BME280;9675;51.538;6.728;2023-02-13T07:23:00;103335.28;;;7.94;100.00
19086;BME280;9675;51.538;6.728;2023-02-13T07:25:28;103341.94;;;7.92;100.00
19086;BME280;9675;51.538;6.728;2023-02-13T07:28:01;103346.00;;;7.90;100.00
19086;BME280;9675;51.538;6.728;2023-02-13T07:30:29;103343.28;;;7.89;100.00
19086;BME280;9675;51.538;6.728;2023-02-13T07:32:59;103346.59;;;7.88;100.00
19086;BME280;9675;51.538;6.728;2023-02-13T07:35:27;103350.06;;;7.88;100.00
19086;BME280;9675;51.538;6.728;2023-02-13T07:37:55;103351.59;;;7.86;100.00
19086;BME280;9675;51.538;6.728;2023-02-13T07:40:22;103351.25;;;7.83;100.00
19086;BME280;9675;51.538;6.728;2023-02-13T07:42:49;103356.38;;;7.83;100.00
19086;BME280;9675;51.538;6.728;2023-02-13T07:45:16;103359.75;;;7.82;100.00
19086;BME280;9675;51.538;6.728;2023-02-13T07:47:43;103352.78;;;7.81;100.00
19086;BME280;9675;51.538;6.728;2023-02-13T07:50:12;103363.03;;;7.81;100.00
19086;BME280;9675;51.538;6.728;2023-02-13T07:52:40;103368.75;;;7.79;100.00
19086;BME280;9675;51.538;6.728;2023-02-13T07:55:08;103356.97;;;7.72;100.00
19086;BME280;9675;51.538;6.728;2023-02-13T07:57:36;103364.38;;;7.78;100.00
19086;BME280;9675;51.538;6.728;2023-02-13T08:00:05;103369.50;;;7.78;100.00
19086;BME280;9675;51.538;6.728;2023-02-13T08:02:32;103365.28;;;7.78;100.00
19086;BME280;9675;51.538;6.728;2023-02-13T08:04:59;103359.13;;;7.76;100.00
19086;BME280;9675;51.538;6.728;2023-02-13T08:07:26;103360.94;;;7.77;100.00
19086;BME280;9675;51.538;6.728;2023-02-13T08:09:54;103371.31;;;7.79;100.00
19086;BME280;9675;51.538;6.728;2023-02-13T08:12:39;103367.84;;;7.78;100.00
19086;BME280;9675;51.538;6.728;2023-02-13T08:15:10;103370.56;;;7.80;100.00
19086;BME280;9675;51.538;6.728;2023-02-13T08:17:38;103378.44;;;7.81;100.00
19086;BME280;9675;51.538;6.728;2023-02-13T08:20:07;103370.00;;;7.82;100.00
19086;BME280;9675;51.538;6.728;2023-02-13T08:22:36;103373.44;;;7.83;100.00
19086;BME280;9675;51.538;6.728;2023-02-13T08:25:06;103375.13;;;7.82;100.00
19086;BME280;9675;51.538;6.728;2023-02-13T08:27:33;103368.19;;;7.81;100.00
19086;BME280;9675;51.538;6.728;2023-02-13T08:30:00;103373.59;;;7.84;100.00
19086;BME280;9675;51.538;6.728;2023-02-13T08:32:28;103354.59;;;7.82;100.00
19086;BME280;9675;51.538;6.728;2023-02-13T08:34:55;103373.59;;;7.84;100.00
19086;BME280;9675;51.538;6.728;2023-02-13T08:37:23;103365.75;;;7.83;100.00
19086;BME280;9675;51.538;6.728;2023-02-13T08:39:50;103374.50;;;7.85;100.00
19086;BME280;9675;51.538;6.728;2023-02-13T08:42:18;103380.56;;;7.85;100.00
19086;BME280;9675;51.538;6.728;2023-02-13T08:44:45;103370.28;;;7.85;100.00
19086;BME280;9675;51.538;6.728;2023-02-13T08:47:13;103373.03;;;7.87;100.00
19086;BME280;9675;51.538;6.728;2023-02-13T08:49:40;103373.94;;;7.87;100.00
19086;BME280;9675;51.538;6.728;2023-02-13T08:52:07;103377.53;;;7.89;100.00
19086;BME280;9675;51.538;6.728;2023-02-13T08:54:34;103376.19;;;7.93;100.00
19086;BME280;9675;51.538;6.728;2023-02-13T08:57:02;103379.97;;;7.96;100.00
19086;BME280;9675;51.538;6.728;2023-02-13T08:59:30;103377.53;;;7.98;100.00
19086;BME280;9675;51.538;6.728;2023-02-13T09:01:57;103374.56;;;8.02;100.00
19086;BME280;9675;51.538;6.728;2023-02-13T09:04:24;103369.72;;;8.05;100.00
19086;BME280;9675;51.538;6.728;2023-02-13T09:06:52;103370.50;;;8.13;100.00
19086;BME280;9675;51.538;6.728;2023-02-13T09:09:20;103374.44;;;8.18;100.00
19086;BME280;9675;51.538;6.728;2023-02-13T09:11:47;103374.25;;;8.25;100.00
19086;BME280;9675;51.538;6.728;2023-02-13T09:14:15;103372.34;;;8.31;100.00
19086;BME280;9675;51.538;6.728;2023-02-13T09:16:44;103372.94;;;8.37;100.00
19086;BME280;9675;51.538;6.728;2023-02-13T09:19:11;103366.78;;;8.43;100.00
19086;BME280;9675;51.538;6.728;2023-02-13T09:21:38;103370.81;;;8.50;100.00
19086;BME280;9675;51.538;6.728;2023-02-13T09:24:06;103378.53;;;8.59;100.00
19086;BME280;9675;51.538;6.728;2023-02-13T09:26:34;103369.00;;;8.66;100.00
19086;BME280;9675;51.538;6.728;2023-02-13T09:29:01;103378.38;;;8.74;100.00
19086;BME280;9675;51.538;6.728;2023-02-13T09:31:28;103378.19;;;8.81;100.00
19086;BME280;9675;51.538;6.728;2023-02-13T09:33:56;103371.25;;;8.89;100.00
19086;BME280;9675;51.538;6.728;2023-02-13T09:36:23;103379.69;;;8.96;100.00
19086;BME280;9675;51.538;6.728;2023-02-13T09:38:53;103369.25;;;9.04;100.00
19086;BME280;9675;51.538;6.728;2023-02-13T09:41:24;103379.38;;;9.11;100.00
19086;BME280;9675;51.538;6.728;2023-02-13T09:43:56;103375.84;;;9.19;100.00
19086;BME280;9675;51.538;6.728;2023-02-13T09:46:30;103374.94;;;9.27;100.00
19086;BME280;9675;51.538;6.728;2023-02-13T09:49:05;103375.94;;;9.37;100.00
19086;BME280;9675;51.538;6.728;2023-02-13T09:51:36;103380.28;;;9.47;100.00
19086;BME280;9675;51.538;6.728;2023-02-13T09:54:06;103382.97;;;9.57;100.00
19086;BME280;9675;51.538;6.728;2023-02-13T09:56:44;103374.59;;;9.68;100.00
19086;BME280;9675;51.538;6.728;2023-02-13T09:59:34;103375.72;;;9.80;100.00
19086;BME280;9675;51.538;6.728;2023-02-13T10:02:24;103382.00;;;9.93;100.00
19086;BME280;9675;51.538;6.728;2023-02-13T10:05:13;103377.09;;;10.04;100.00
19086;BME280;9675;51.538;6.728;2023-02-13T10:07:54;103376.41;;;10.15;100.00
19086;BME280;9675;51.538;6.728;2023-02-13T10:10:39;103371.50;;;10.27;100.00
19086;BME280;9675;51.538;6.728;2023-02-13T10:13:32;103371.84;;;10.40;100.00
19086;BME280;9675;51.538;6.728;2023-02-13T10:16:08;103373.75;;;10.51;100.00
19086;BME280;9675;51.538;6.728;2023-02-13T10:18:46;103364.50;;;10.63;100.00
19086;BME280;9675;51.538;6.728;2023-02-13T10:21:20;103366.38;;;10.75;100.00
19086;BME280;9675;51.538;6.728;2023-02-13T10:23:56;103370.97;;;10.87;100.00
19086;BME280;9675;51.538;6.728;2023-02-13T10:26:30;103367.78;;;11.00;100.00
19086;BME280;9675;51.538;6.728;2023-02-13T10:29:16;103367.72;;;11.08;100.00
19086;BME280;9675;51.538;6.728;2023-02-13T10:32:09;103364.66;;;11.23;100.00
19086;BME280;9675;51.538;6.728;2023-02-13T10:34:43;103365.28;;;11.30;100.00
19086;BME280;9675;51.538;6.728;2023-02-13T10:37:18;103358.63;;;11.42;100.00
19086;BME280;9675;51.538;6.728;2023-02-13T10:39:50;103359.69;;;11.55;100.00
19086;BME280;9675;51.538;6.728;2023-02-13T10:42:21;103364.22;;;11.67;100.00
19086;BME280;9675;51.538;6.728;2023-02-13T10:45:05;103368.03;;;11.81;100.00
19086;BME280;9675;51.538;6.728;2023-02-13T10:47:56;103365.56;;;11.92;100.00
19086;BME280;9675;51.538;6.728;2023-02-13T10:50:35;103372.28;;;12.01;100.00
19086;BME280;9675;51.538;6.728;2023-02-13T10:53:18;103364.91;;;12.05;100.00
19086;BME280;9675;51.538;6.728;2023-02-13T10:56:18;103359.59;;;12.14;100.00
19086;BME280;9675;51.538;6.728;2023-02-13T10:59:28;103350.44;;;12.27;100.00
19086;BME280;9675;51.538;6.728;2023-02-13T11:02:08;103341.88;;;12.39;100.00
19086;BME280;9675;51.538;6.728;2023-02-13T11:04:43;103340.16;;;12.49;100.00
19086;BME280;9675;51.538;6.728;2023-02-13T11:07:14;103345.84;;;12.55;100.00
19086;BME280;9675;51.538;6.728;2023-02-13T11:09:48;103342.06;;;12.62;100.00
19086;BME280;9675;51.538;6.728;2023-02-13T11:12:28;103335.81;;;12.70;100.00
19086;BME280;9675;51.538;6.728;2023-02-13T11:14:58;103335.00;;;12.81;100.00
19086;BME280;9675;51.538;6.728;2023-02-13T11:17:29;103334.97;;;12.91;100.00
19086;BME280;9675;51.538;6.728;2023-02-13T11:20:00;103323.78;;;13.02;100.00
19086;BME280;9675;51.538;6.728;2023-02-13T11:22:34;103326.63;;;13.15;100.00
19086;BME280;9675;51.538;6.728;2023-02-13T11:25:11;103320.13;;;13.54;100.00
19086;BME280;9675;51.538;6.728;2023-02-13T11:27:43;103323.94;;;13.81;100.00
19086;BME280;9675;51.538;6.728;2023-02-13T11:30:32;103321.34;;;13.81;100.00
19086;BME280;9675;51.538;6.728;2023-02-13T11:33:16;103318.00;;;13.82;98.98
19086;BME280;9675;51.538;6.728;2023-02-13T11:35:47;103306.28;;;13.87;95.69
19086;BME280;9675;51.538;6.728;2023-02-13T11:38:22;103302.69;;;13.96;97.18
19086;BME280;9675;51.538;6.728;2023-02-13T11:41:05;103297.72;;;13.99;95.98
19086;BME280;9675;51.538;6.728;2023-02-13T11:43:36;103297.84;;;14.01;93.92
19086;BME280;9675;51.538;6.728;2023-02-13T11:46:07;103301.81;;;14.08;91.17
19086;BME280;9675;51.538;6.728;2023-02-13T11:48:38;103286.94;;;14.17;89.88
19086;BME280;9675;51.538;6.728;2023-02-13T11:51:05;103287.84;;;14.29;90.85
19086;BME280;9675;51.538;6.728;2023-02-13T11:53:37;103288.84;;;14.31;91.47
19086;BME280;9675;51.538;6.728;2023-02-13T11:56:14;103281.31;;;14.34;90.47
19086;BME280;9675;51.538;6.728;2023-02-13T11:58:42;103283.13;;;14.35;89.46
19086;BME280;9675;51.538;6.728;2023-02-13T12:01:33;103282.69;;;14.40;88.27
19086;BME280;9675;51.538;6.728;2023-02-13T12:04:04;103282.22;;;14.46;87.31
19086;BME280;9675;51.538;6.728;2023-02-13T12:06:33;103280.22;;;14.54;86.95
19086;BME280;9675;51.538;6.728;2023-02-13T12:09:10;103279.97;;;14.62;86.77
19086;BME280;9675;51.538;6.728;2023-02-13T12:11:44;103272.63;;;14.68;86.50
19086;BME280;9675;51.538;6.728;2023-02-13T12:14:18;103268.09;;;14.77;85.37
19086;BME280;9675;51.538;6.728;2023-02-13T12:16:50;103262.13;;;14.78;83.90
19086;BME280;9675;51.538;6.728;2023-02-13T12:19:28;103267.16;;;14.88;83.40
19086;BME280;9675;51.538;6.728;2023-02-13T12:22:21;103265.31;;;14.99;81.67
19086;BME280;9675;51.538;6.728;2023-02-13T12:25:26;103266.88;;;15.09;78.67
19086;BME280;9675;51.538;6.728;2023-02-13T12:28:10;103262.53;;;15.21;78.76
19086;BME280;9675;51.538;6.728;2023-02-13T12:31:15;103264.97;;;15.31;79.71
19086;BME280;9675;51.538;6.728;2023-02-13T12:34:33;103262.81;;;15.37;80.06
19086;BME280;9675;51.538;6.728;2023-02-13T12:37:20;103247.41;;;15.40;77.91
19086;BME280;9675;51.538;6.728;2023-02-13T12:40:02;103250.25;;;15.43;75.81
19086;BME280;9675;51.538;6.728;2023-02-13T12:42:50;103243.22;;;15.54;76.80
19086;BME280;9675;51.538;6.728;2023-02-13T12:45:32;103235.81;;;15.60;75.90
19086;BME280;9675;51.538;6.728;2023-02-13T12:48:18;103237.13;;;15.66;74.76
19086;BME280;9675;51.538;6.728;2023-02-13T12:51:06;103241.06;;;15.73;73.62
19086;BME280;9675;51.538;6.728;2023-02-13T12:54:06;103233.97;;;15.84;74.57
19086;BME280;9675;51.538;6.728;2023-02-13T12:57:01;103221.28;;;15.88;72.71
19086;BME280;9675;51.538;6.728;2023-02-13T12:59:46;103219.00;;;15.93;72.71
19086;BME280;9675;51.538;6.728;2023-02-13T13:02:55;103216.69;;;15.97;70.13
19086;BME280;9675;51.538;6.728;2023-02-13T13:05:50;103203.59;;;16.09;69.36
19086;BME280;9675;51.538;6.728;2023-02-13T13:08:40;103213.19;;;16.23;68.69
19086;BME280;9675;51.538;6.728;2023-02-13T13:11:42;103202.38;;;16.30;68.73
19086;BME280;9675;51.538;6.728;2023-02-13T13:14:21;103209.84;;;16.39;68.14
19086;BME280;9675;51.538;6.728;2023-02-13T13:17:04;103212.84;;;16.45;68.49
19086;BME280;9675;51.538;6.728;2023-02-13T13:19:42;103197.97;;;16.42;67.21
19086;BME280;9675;51.538;6.728;2023-02-13T13:22:21;103205.34;;;16.49;67.35
19086;BME280;9675;51.538;6.728;2023-02-13T13:25:03;103201.94;;;16.50;66.50
19086;BME280;9675;51.538;6.728;2023-02-13T13:27:41;103199.44;;;16.52;66.15
19086;BME280;9675;51.538;6.728;2023-02-13T13:30:18;103193.53;;;16.54;65.96
19086;BME280;9675;51.538;6.728;2023-02-13T13:32:50;103189.75;;;16.63;64.90
19086;BME280;9675;51.538;6.728;2023-02-13T13:35:20;103187.72;;;16.72;64.65
19086;BME280;9675;51.538;6.728;2023-02-13T13:37:56;103191.78;;;16.81;64.97